North Tazewell, VA (24630)

08:13 AM EDT วัน กันยายน 25, 2016 (GMT -0400)
Wittens Mill | | Change Station

Elev 2589 ft 37.18 °N, 81.47 °W | Updated 41 seconds ago

Clear
ท้องฟ้าแจ่มใส
55.9 ฟาเรนไฮน์
Feels Like 55.9 ฟาเรนไฮน์
N
0.0
ลม ความผันแปร ลม from ทางทิศเหนือและทิศตะวันตกเฉียงเหนือ

วันนี้
High -- | Low -- ฟาเรนไฮน์
--% Chance of Precip.
Yesterday
High -- | Low -- ฟาเรนไฮน์
Precip. -- นิ้ว
ความดัน 30.21 นิ้ว
ทัศนวิสัย 10.0 ไมล์
เมฆ ท้องฟ้าแจ่มใส
อุณหภูมิที่อากาศอาจจับตัวเป็นหยาดน้ำค้าง 53 ฟาเรนไฮน์
ความชื้น 90%
Rainfall 0.00 นิ้ว
Snow Depth Not available.
7:16 AM 7:17 PM
เดือนเสี้ยว, 28% visible
METAR KJFZ 251155Z AUTO 06004KT 10SM CLR 18/17 A3021 RMK AO2 T01800168 10200 20163
ความดัน 30.21 นิ้ว
ทัศนวิสัย 10.0 ไมล์
เมฆ ท้องฟ้าแจ่มใส
อุณหภูมิที่อากาศอาจจับตัวเป็นหยาดน้ำค้าง 53 ฟาเรนไฮน์
ความชื้น 90%
Rainfall 0.00 นิ้ว
Snow Depth Not available.
7:16 AM 7:17 PM
เดือนเสี้ยว, 28% visible
METAR KJFZ 251155Z AUTO 06004KT 10SM CLR 18/17 A3021 RMK AO2 T01800168 10200 20163

10-Day Weather Forecast

Almanac

ดาราศาสตร์

Sep. 25, 2016 Rise Set
Actual Time
Civil Twilight
Nautical Twilight
Astronomical Twilight
Moon
Length Of Visible Light
ความยาวของวัน
Tomorrow will be .
, % of the Moon is Illuminated

Today's Extremes

State Highs State Lows

Community

WunderPhotos

Upload Photos

1,941,583 photos uploaded!

WunderBlog® & News

Nearby

Air Quality

  Air Quality AQ Index Pollutant
Not available.

Snow Depth

Station Depth Elevation

Earthquake Activity

City Distance Mag. Time & Date
Minimum magnitude displayed is 2.5.

Coastal Water Temperatures

สถานที่ อุณหภูมิ

Stations

Nearby Weather Stations

Station Location Temp ลมหนาว อุณหภูมิที่อากาศอาจจับตัวเป็นหยาดน้ำค้าง ความชื้น ลม Precip. Elev ปรับปรุงล่าสุด Type
                   

Watches & Warnings

There are currently no watches in effect.